Cordova, AK (99574)

11:04 AM AKST on January 27, 2015 (GMT -0900)
APRSWXNET Cordova AK US | Change Station
CLOSE
Current Station
Personal Weather Station
Location: Cordova, AK
Elevation: 15 ft
Nearby Weather Stations

Elev 15 ft 60.54 °N, 145.77 °W | Updated 56 minutes ago

Partly Cloudy
Partly Cloudy
23 °F
Feels Like 18 °F
N
4
Wind Variable Wind from ESE
Gusts 6.0 mph

Today
High -- | Low -- °F
--% Chance of Precip.
Yesterday
High -- | Low -- °F
Precip. -- in
9:11 AM 4:41 PM
First Quarter, 57% visible
Pressure 29.95 in
Visibility 10.0 miles
Clouds Few 400 ft
Windchill 18 °F
Dew Point 20 °F
Humidity 89%
Rainfall -999.00 in
Snow Depth Not available.
UV 0 out of 12
Pollen Not available.
Air Quality Not available.
Flu Activity Not available.
METAR PACV 271953Z 00000KT 10SM FEW004 M09/M11 A2995 RMK AO2 SLP141 T10941106

More Conditions Fewer Conditions

Pressure 29.95 in
Visibility 10.0 miles
Clouds Few 400 ft
Windchill 18 °F
Dew Point 20 °F
Humidity 89%
Rainfall -999.00 in
Snow Depth Not available.
UV 0 out of 12
Pollen Not available.
Air Quality Not available.
Flu Activity Not available.
METAR PACV 271953Z 00000KT 10SM FEW004 M09/M11 A2995 RMK AO2 SLP141 T10941106

More Conditions Fewer Conditions

10-Day Weather Forecast

Almanac

Astronomy

Jan. 27, 2015 Rise Set
Actual Time
Civil Twilight
Nautical Twilight
Astronomical Twilight
Moon
Length of Visible Light
Length of Day
Tomorrow will be .
, % of the Moon is Illuminated

Today's Extremes

State Highs State Lows

Community

WunderPhotos

Upload Photos

1,790,874 photos uploaded!

WunderBlogs® & News

Nearby

Air Quality

  Air Quality AQ Index Pollutant
Not available.

Snow Depth

Station Depth Elevation

Earthquake Activity

City Distance Mag. Time & Date
Minimum magnitude displayed is 2.5.

Coastal Water Temperatures

Place Temperature

Nearby Weather Stations